Terminal Aerodrome Forecast
Issued by NWS

Home | Current Version | Previous Version | Graphics & Text | Print | Product List | Glossary On
Versions: 1 2 3 4 5 6 7 8 9 10 11 12 13 14 15 16 17 18 19 20
156
FTUS43 KICT 181340 AAA
TAFHUT
TAF AMD
KHUT 181340Z 1814/1912 18005KT 3SM BR SCT003 SCT250
      TEMPO 1814/1816 1/2SM FG BKN003
     FM181800 17011KT P6SM SCT250
     FM190100 17007KT P6SM BKN080
     FM190500 17008KT P6SM BKN009
     FM190700 17008KT P6SM BKN003
     FM190900 17007KT 3SM BR BKN003=

USA.gov is the U.S. government's official web portal to all federal, state and local government web resources and services.